Gambell Airport
PAGM : now visible

Airfield :











YOU CAN JOIN US ON...

 
LOGIN :

Register | Disclaimer

   EN    FR    IT 

 









Legend :    VFR   Marginal VFR   IFR   Intensive IFR   Very Intensive IFR
Visi :
Ceiling :
>= 8 km
>= 3000ft
5 to 8 km
1000 to 3000 ft
1500m to 5 km
500 to 1000 ft
800 to 1500m
200 to 500 ft
< 800m
< 200 ft
Symbols :   Thunderstorms  Fog  Heavy snow  Heavy precipitations  Wind > 20 kt






- Airport Elevation : 27 ft
- IATA code : GAM


PAGM - Gambell

CURRENT METAR :
  • 191431Z AUTO 04017KT 4SM -RA BR BKN007 OVC012 03/02 A2976 RMK AO2 UPB18E23 CIG 005V009 PNO $

EXPIRED METARs :
  • 191256Z AUTO 03017KT 3SM -RA BR OVC007 03/02 A2975 RMK AO2 RAB05 CIG 005V009 SLP080 T00330022 PNO $
  • 191242Z AUTO 03016KT 3SM -RA BR OVC007 03/02 A2975 RMK AO2 RAB05 CIG 005V009 PNO $
  • 191228Z AUTO 04017KT 3SM -RA BR OVC005 03/03 A2973 RMK AO2 RAB05 CIG 005V008 PNO $
  • 191156Z AUTO 03017KT 7SM OVC005 03/03 A2974 RMK AO2 RAB1057E20 SLP077 6//// 7//// T00330028 10072 20033 51009 PNO $

TAF N/A
PAZA FIR / North America



MET'MAP, your aeronautical weather chart ! - Copyright ORBIFLY December 2007 - Disclaimer

ORBIFLY MET'MAP TEAM :

Programming & Development : Alexandra Zaïnal
Concept & original design : Baudouin d'Aumeries
Assistance for programming : Marc-Olivier Méhu
Technical & hardware support : Manuel Goepfert

Contact : metmap@orbifly.com




SOURCES & CREDITS :

   NOAA       Earth
Advisory